createdAt,value
2022-11-20T00:01:25.973Z,45.50
2022-11-20T00:03:54.112Z,44.63
2022-11-20T00:06:21.423Z,47.63
2022-11-20T00:08:48.459Z,44.78
2022-11-20T00:11:18.256Z,40.92
2022-11-20T00:13:46.028Z,41.03
2022-11-20T00:16:14.856Z,43.85
2022-11-20T00:18:41.265Z,39.78
2022-11-20T00:21:12.275Z,41.55
2022-11-20T00:23:38.631Z,42.00
2022-11-20T00:26:07.701Z,46.80
2022-11-20T00:28:34.322Z,52.15
2022-11-20T00:31:17.388Z,42.70
2022-11-20T00:33:44.703Z,43.60
2022-11-20T00:36:13.980Z,39.22
2022-11-20T00:38:40.363Z,43.50
2022-11-20T00:41:09.644Z,43.38
2022-11-20T00:43:36.055Z,42.67
2022-11-20T00:46:05.130Z,45.45
2022-11-20T00:48:31.510Z,43.40
2022-11-20T00:50:57.870Z,45.40
2022-11-20T00:53:24.988Z,43.75
2022-11-20T00:55:56.032Z,48.95
2022-11-20T00:58:23.222Z,48.88
2022-11-20T01:00:50.194Z,48.47
2022-11-20T01:03:25.574Z,46.15
2022-11-20T01:05:53.264Z,47.42
2022-11-20T01:08:19.565Z,50.35
2022-11-20T01:10:45.869Z,47.75
2022-11-20T01:13:12.203Z,46.03
2022-11-20T01:15:38.743Z,40.13
2022-11-20T01:18:05.245Z,47.45
2022-11-20T01:20:35.784Z,44.45
2022-11-20T01:23:03.168Z,46.20
2022-11-20T01:25:30.121Z,40.70
2022-11-20T01:27:56.484Z,40.15
2022-11-20T01:30:22.829Z,40.53
2022-11-20T01:32:49.144Z,43.13
2022-11-20T01:35:15.519Z,39.95
2022-11-20T01:37:41.858Z,37.90
2022-11-20T01:40:08.872Z,47.38
2022-11-20T01:42:35.494Z,41.95
2022-11-20T01:45:02.034Z,37.75
2022-11-20T01:47:36.889Z,37.83
2022-11-20T01:50:38.772Z,39.13
2022-11-20T01:53:11.840Z,40.08
2022-11-20T01:55:42.655Z,37.40
2022-11-20T01:58:09.414Z,34.50
2022-11-20T02:00:35.849Z,38.10
2022-11-20T02:03:09.937Z,36.88
2022-11-20T02:06:00.427Z,37.80
2022-11-20T02:08:26.794Z,31.23
2022-11-20T02:10:53.175Z,35.55
2022-11-20T02:13:19.621Z,39.53
2022-11-20T02:15:47.847Z,37.58
2022-11-20T02:18:18.227Z,36.08
2022-11-20T02:20:48.536Z,39.72
2022-11-20T02:23:17.570Z,37.00
2022-11-20T02:25:46.733Z,37.90
2022-11-20T02:28:13.242Z,33.78
2022-11-20T02:30:39.569Z,42.10
2022-11-20T02:33:05.895Z,35.15
2022-11-20T02:35:32.169Z,40.55
2022-11-20T02:38:03.416Z,37.05
2022-11-20T02:40:30.406Z,34.78
2022-11-20T02:42:57.723Z,34.42
2022-11-20T02:45:25.381Z,38.25
2022-11-20T02:47:52.367Z,40.80
2022-11-20T02:50:19.262Z,42.42
2022-11-20T02:52:45.662Z,38.25
2022-11-20T02:55:12.657Z,44.03
2022-11-20T02:57:39.027Z,39.08
2022-11-20T03:00:06.651Z,39.40
2022-11-20T03:02:33.783Z,41.25
2022-11-20T03:05:00.150Z,37.67
2022-11-20T03:07:26.471Z,36.42
2022-11-20T03:09:52.829Z,36.67
2022-11-20T03:12:19.128Z,38.63
2022-11-20T03:14:50.218Z,36.38
2022-11-20T03:17:19.130Z,34.10
2022-11-20T03:19:45.477Z,35.67
2022-11-20T03:22:11.779Z,40.38
2022-11-20T03:24:38.140Z,45.78
2022-11-20T03:27:04.438Z,45.58
2022-11-20T03:29:30.817Z,44.75
2022-11-20T03:31:57.126Z,39.50
2022-11-20T03:34:23.461Z,40.72
2022-11-20T03:36:49.808Z,44.60
2022-11-20T03:39:16.128Z,41.50
2022-11-20T03:41:42.635Z,35.53
2022-11-20T03:44:11.173Z,36.75
2022-11-20T03:46:38.058Z,36.63
2022-11-20T03:49:04.765Z,32.55
2022-11-20T03:51:33.484Z,35.83
2022-11-20T03:54:02.363Z,36.65
2022-11-20T03:56:31.057Z,36.80
2022-11-20T03:58:57.893Z,32.33
2022-11-20T04:01:27.148Z,32.60
2022-11-20T04:03:55.110Z,35.92
2022-11-20T04:06:29.562Z,35.45
2022-11-20T04:08:57.644Z,32.38
2022-11-20T04:11:26.886Z,32.10
2022-11-20T04:13:56.720Z,37.95
2022-11-20T04:16:24.779Z,33.33
2022-11-20T04:18:55.977Z,29.92
2022-11-20T04:21:22.622Z,32.97
2022-11-20T04:23:49.577Z,32.75
2022-11-20T04:26:16.070Z,34.78
2022-11-20T04:28:42.452Z,37.72
2022-11-20T04:31:14.543Z,36.35
2022-11-20T04:33:41.760Z,39.30
2022-11-20T04:36:12.571Z,39.85
2022-11-20T04:38:39.894Z,36.55
2022-11-20T04:41:08.149Z,38.30
2022-11-20T04:43:35.071Z,38.28
2022-11-20T04:46:02.066Z,37.10
2022-11-20T04:48:29.684Z,44.97
2022-11-20T04:50:56.200Z,38.90
2022-11-20T04:53:23.597Z,40.60
2022-11-20T04:55:49.996Z,38.60
2022-11-20T04:58:17.358Z,37.38
2022-11-20T05:00:43.702Z,41.13
2022-11-20T05:03:10.023Z,38.55
2022-11-20T05:05:36.422Z,39.33
2022-11-20T05:08:02.863Z,36.70
2022-11-20T05:10:29.332Z,36.35
2022-11-20T05:12:55.712Z,41.03
2022-11-20T05:15:22.238Z,40.92
2022-11-20T05:17:52.875Z,35.30
2022-11-20T05:20:19.915Z,38.97
2022-11-20T05:22:46.669Z,39.95
2022-11-20T05:25:13.281Z,39.95
2022-11-20T05:27:39.609Z,41.05
2022-11-20T05:30:06.630Z,44.78
2022-11-20T05:32:32.995Z,43.90
2022-11-20T05:34:59.379Z,42.17
2022-11-20T05:37:25.690Z,46.20
2022-11-20T05:39:52.035Z,47.15
2022-11-20T05:42:18.365Z,43.03
2022-11-20T05:44:44.699Z,46.33
2022-11-20T05:47:11.006Z,49.20
2022-11-20T05:49:37.336Z,44.63
2022-11-20T05:52:03.823Z,42.80
2022-11-20T05:54:30.144Z,40.70
2022-11-20T05:56:56.465Z,42.72
2022-11-20T05:59:23.000Z,42.10
2022-11-20T06:01:49.564Z,44.08
2022-11-20T06:04:15.876Z,40.28
2022-11-20T06:06:42.210Z,34.55
2022-11-20T06:09:08.537Z,40.75
2022-11-20T06:11:34.872Z,36.17
2022-11-20T06:14:01.209Z,37.72
2022-11-20T06:16:27.537Z,36.20
2022-11-20T06:18:53.852Z,38.45
2022-11-20T06:21:21.841Z,34.97
2022-11-20T06:23:48.879Z,34.60
2022-11-20T06:26:21.189Z,33.65
2022-11-20T06:28:47.897Z,38.70
2022-11-20T06:31:16.571Z,37.85
2022-11-20T06:33:44.110Z,35.30
2022-11-20T06:36:12.861Z,32.67
2022-11-20T06:38:40.103Z,34.10
2022-11-20T06:41:07.699Z,38.05
2022-11-20T06:43:34.042Z,41.00
2022-11-20T06:46:00.515Z,36.85
2022-11-20T06:48:28.189Z,38.03
2022-11-20T06:50:54.522Z,37.70
2022-11-20T06:53:20.882Z,35.40
2022-11-20T06:55:48.003Z,37.75
2022-11-20T06:58:15.318Z,38.72
2022-11-20T07:00:42.412Z,34.97
2022-11-20T07:03:11.025Z,35.88
2022-11-20T07:05:38.146Z,34.25
2022-11-20T07:08:05.257Z,37.40
2022-11-20T07:10:32.281Z,35.60
2022-11-20T07:12:58.592Z,34.30
2022-11-20T07:15:25.593Z,34.05
2022-11-20T07:17:52.251Z,38.70
2022-11-20T07:20:18.776Z,38.38
2022-11-20T07:22:45.130Z,36.50
2022-11-20T07:25:11.681Z,37.08
2022-11-20T07:27:38.039Z,37.53
2022-11-20T07:30:05.143Z,37.78
2022-11-20T07:32:31.472Z,36.13
2022-11-20T07:34:57.828Z,40.25
2022-11-20T07:37:24.134Z,43.00
2022-11-20T07:39:50.454Z,38.53
2022-11-20T07:42:16.858Z,38.78
2022-11-20T07:44:43.184Z,36.33
2022-11-20T07:47:09.480Z,38.15
2022-11-20T07:49:35.797Z,36.88
2022-11-20T07:52:05.032Z,39.70
2022-11-20T07:54:31.802Z,37.15
2022-11-20T07:56:58.125Z,40.85
2022-11-20T07:59:24.540Z,42.10
2022-11-20T08:01:50.942Z,39.85
2022-11-20T08:04:17.271Z,39.20
2022-11-20T08:06:43.635Z,40.30
2022-11-20T08:09:09.983Z,42.60
2022-11-20T08:11:36.294Z,42.92
2022-11-20T08:14:02.616Z,43.63
2022-11-20T08:16:29.145Z,41.92
2022-11-20T08:18:55.932Z,35.28
2022-11-20T08:21:22.235Z,44.08
2022-11-20T08:23:48.569Z,51.67
2022-11-20T08:26:14.888Z,46.92
2022-11-20T08:28:41.190Z,49.67
2022-11-20T08:31:07.505Z,49.58
2022-11-20T08:33:33.837Z,43.95
2022-11-20T08:36:01.732Z,47.58
2022-11-20T08:38:28.173Z,47.67
2022-11-20T08:40:58.626Z,58.05
2022-11-20T08:43:24.934Z,49.10
2022-11-20T08:45:51.245Z,50.45
2022-11-20T08:48:17.556Z,49.60
2022-11-20T08:50:43.886Z,50.08
2022-11-20T08:53:10.203Z,48.22
2022-11-20T08:55:36.724Z,50.15
2022-11-20T08:58:07.307Z,49.45
2022-11-20T09:00:34.719Z,48.33
2022-11-20T09:03:01.690Z,53.72
2022-11-20T09:05:28.444Z,44.10
2022-11-20T09:07:58.618Z,48.33
2022-11-20T09:10:25.352Z,43.83
2022-11-20T09:12:53.136Z,51.72
2022-11-20T09:15:20.295Z,47.83
2022-11-20T09:18:00.631Z,48.53
2022-11-20T09:20:28.782Z,50.25
2022-11-20T09:22:55.664Z,50.65
2022-11-20T09:25:22.200Z,47.72
2022-11-20T09:27:48.557Z,50.42
2022-11-20T09:30:16.264Z,46.75
2022-11-20T09:32:43.628Z,52.78
2022-11-20T09:35:10.497Z,47.53
2022-11-20T09:37:36.971Z,50.08
2022-11-20T09:40:04.023Z,50.80
2022-11-20T09:42:38.149Z,48.92
2022-11-20T09:45:55.677Z,52.58
2022-11-20T09:48:32.161Z,66.25
2022-11-20T09:51:11.298Z,57.47
2022-11-20T09:53:55.631Z,58.10
2022-11-20T09:56:22.911Z,44.22
2022-11-20T09:58:52.426Z,39.20
2022-11-20T10:01:32.760Z,36.30
2022-11-20T10:04:04.222Z,34.78
2022-11-20T10:06:42.880Z,32.45
2022-11-20T10:09:12.172Z,25.30
2022-11-20T10:12:07.784Z,25.05
2022-11-20T10:14:39.785Z,22.17
2022-11-20T10:17:43.274Z,22.33
2022-11-20T10:20:36.427Z,24.17
2022-11-20T10:23:30.689Z,23.35
2022-11-20T10:26:04.726Z,22.63
2022-11-20T10:29:09.300Z,20.83
2022-11-20T10:31:41.494Z,21.70
2022-11-20T10:34:21.018Z,21.00
2022-11-20T10:36:56.882Z,18.95
2022-11-20T10:40:01.645Z,22.45
2022-11-20T10:42:46.218Z,22.52
2022-11-20T10:45:24.779Z,22.65
2022-11-20T10:47:53.853Z,22.80
2022-11-20T10:50:22.994Z,23.70
2022-11-20T10:53:34.805Z,21.40
2022-11-20T10:56:20.322Z,20.92
2022-11-20T10:59:01.258Z,22.95
2022-11-20T11:01:27.802Z,22.33
2022-11-20T11:03:56.265Z,26.42
2022-11-20T11:06:46.328Z,25.55
2022-11-20T11:09:33.512Z,26.67
2022-11-20T11:12:05.758Z,26.30
2022-11-20T11:14:46.222Z,25.90
2022-11-20T11:17:47.718Z,24.73
2022-11-20T11:20:25.429Z,26.73
2022-11-20T11:22:53.151Z,21.98
2022-11-20T11:25:28.438Z,20.45
2022-11-20T11:27:56.885Z,25.02
2022-11-20T11:30:25.354Z,22.10
2022-11-20T11:33:02.699Z,19.70
2022-11-20T11:35:29.342Z,23.08
2022-11-20T11:38:05.533Z,20.92
2022-11-20T11:40:37.216Z,23.08
2022-11-20T11:43:08.581Z,22.77
2022-11-20T11:45:34.918Z,24.48
2022-11-20T11:48:04.563Z,23.40
2022-11-20T11:50:30.946Z,20.60
2022-11-20T11:53:09.847Z,21.58
2022-11-20T11:55:44.814Z,21.35
2022-11-20T11:58:19.790Z,23.15
2022-11-20T12:00:58.097Z,18.70
2022-11-20T12:03:36.748Z,22.05
2022-11-20T12:06:09.952Z,21.90
2022-11-20T12:08:54.112Z,19.70
2022-11-20T12:11:47.735Z,18.27
2022-11-20T12:14:34.996Z,17.35
2022-11-20T12:17:02.757Z,13.45
2022-11-20T12:19:35.354Z,15.48
2022-11-20T12:22:26.386Z,13.25
2022-11-20T12:25:02.637Z,13.93
2022-11-20T12:27:53.801Z,14.00
2022-11-20T12:30:22.064Z,14.65
2022-11-20T12:33:19.222Z,15.95
2022-11-20T12:36:17.241Z,13.30
2022-11-20T12:38:46.523Z,14.98
2022-11-20T12:41:28.166Z,15.75
2022-11-20T12:44:24.073Z,16.85
2022-11-20T12:47:09.522Z,15.70
2022-11-20T12:49:49.268Z,14.88
2022-11-20T12:52:27.552Z,14.07
2022-11-20T12:55:13.341Z,12.90
2022-11-20T12:57:47.309Z,15.52
2022-11-20T13:00:20.563Z,12.20
2022-11-20T13:03:13.512Z,13.73
2022-11-20T13:05:49.153Z,12.70
2022-11-20T13:08:37.027Z,15.68
2022-11-20T13:11:19.985Z,13.32
2022-11-20T13:14:12.525Z,11.00
2022-11-20T13:16:51.493Z,12.05
2022-11-20T13:19:19.044Z,11.18
2022-11-20T13:21:50.356Z,12.75
2022-11-20T13:24:20.020Z,12.07
2022-11-20T13:26:47.735Z,12.23
2022-11-20T13:29:19.492Z,12.90
2022-11-20T13:31:49.332Z,11.88
2022-11-20T13:34:25.853Z,12.30
2022-11-20T13:36:57.925Z,11.30
2022-11-20T13:39:29.767Z,13.23
2022-11-20T13:41:58.930Z,14.00
2022-11-20T13:44:37.598Z,12.63
2022-11-20T13:47:04.588Z,14.80
2022-11-20T13:49:35.177Z,11.63
2022-11-20T13:52:15.074Z,11.45
2022-11-20T13:54:50.378Z,13.50
2022-11-20T13:57:19.664Z,12.80
2022-11-20T13:59:55.097Z,12.25
2022-11-20T14:02:23.986Z,15.73
2022-11-20T14:04:53.635Z,17.80
2022-11-20T14:07:24.697Z,12.75
2022-11-20T14:09:56.840Z,14.20
2022-11-20T14:12:29.031Z,13.15
2022-11-20T14:14:55.907Z,14.02
2022-11-20T14:17:23.964Z,16.02
2022-11-20T14:19:52.573Z,15.13
2022-11-20T14:22:24.659Z,13.98
2022-11-20T14:25:12.515Z,14.50
2022-11-20T14:27:41.415Z,13.13
2022-11-20T14:30:19.974Z,13.52
2022-11-20T14:32:47.777Z,14.18
2022-11-20T14:35:41.420Z,16.55
2022-11-20T14:38:12.816Z,16.63
2022-11-20T14:40:39.177Z,20.27
2022-11-20T14:43:23.520Z,21.75
2022-11-20T14:46:07.950Z,16.23
2022-11-20T14:48:44.130Z,16.73
2022-11-20T14:51:12.328Z,22.45
2022-11-20T14:53:38.743Z,22.58
2022-11-20T14:56:05.261Z,21.98
2022-11-20T14:58:34.312Z,24.58
2022-11-20T15:01:08.272Z,22.38
2022-11-20T15:03:39.591Z,16.43
2022-11-20T15:06:08.088Z,22.70
2022-11-20T15:08:35.316Z,23.08
2022-11-20T15:11:02.410Z,22.70
2022-11-20T15:13:38.568Z,23.92
2022-11-20T15:16:17.358Z,27.50
2022-11-20T15:18:44.038Z,27.08
2022-11-20T15:21:16.098Z,33.28
2022-11-20T15:23:43.529Z,30.13
2022-11-20T15:26:15.390Z,26.17
2022-11-20T15:28:46.636Z,29.80
2022-11-20T15:31:14.725Z,24.60
2022-11-20T15:33:41.044Z,24.45
2022-11-20T15:36:07.649Z,23.48
2022-11-20T15:38:33.984Z,28.02
2022-11-20T15:41:00.330Z,23.27
2022-11-20T15:43:26.648Z,26.33
2022-11-20T15:46:00.257Z,27.73
2022-11-20T15:48:36.803Z,29.42
2022-11-20T15:51:11.949Z,28.58
2022-11-20T15:53:39.137Z,33.58
2022-11-20T15:56:05.628Z,29.20
2022-11-20T15:58:31.934Z,27.33
2022-11-20T16:00:58.365Z,33.53
2022-11-20T16:03:25.086Z,31.17
2022-11-20T16:05:51.387Z,31.23
2022-11-20T16:08:17.726Z,31.48
2022-11-20T16:10:44.050Z,29.65
2022-11-20T16:13:16.903Z,36.53
2022-11-20T16:15:46.227Z,34.63
2022-11-20T16:18:15.898Z,35.63
2022-11-20T16:20:42.450Z,29.08
2022-11-20T16:23:08.791Z,34.38
2022-11-20T16:25:35.185Z,33.75
2022-11-20T16:28:01.478Z,37.58
2022-11-20T16:30:27.789Z,35.25
2022-11-20T16:32:54.523Z,33.25
2022-11-20T16:35:20.862Z,40.53
2022-11-20T16:37:47.147Z,38.10
2022-11-20T16:40:13.451Z,38.90
2022-11-20T16:42:39.742Z,37.97
2022-11-20T16:45:06.570Z,38.25
2022-11-20T16:47:36.048Z,36.83
2022-11-20T16:50:04.033Z,37.38
2022-11-20T16:52:31.131Z,32.05
2022-11-20T16:54:58.171Z,35.38
2022-11-20T16:57:25.071Z,33.15
2022-11-20T16:59:51.376Z,32.13
2022-11-20T17:02:17.709Z,35.67
2022-11-20T17:04:44.017Z,33.40
2022-11-20T17:07:10.423Z,33.33
2022-11-20T17:09:36.790Z,32.60
2022-11-20T17:12:03.265Z,33.75
2022-11-20T17:14:29.631Z,35.60
2022-11-20T17:16:55.930Z,32.25
2022-11-20T17:19:22.241Z,33.33
2022-11-20T17:21:48.563Z,32.75
2022-11-20T17:24:15.534Z,34.45
2022-11-20T17:26:43.516Z,31.48
2022-11-20T17:29:16.168Z,30.65
2022-11-20T17:31:43.221Z,30.30
2022-11-20T17:34:13.597Z,27.10
2022-11-20T17:36:44.889Z,30.27
2022-11-20T17:39:16.044Z,31.08
2022-11-20T17:41:42.373Z,31.27
2022-11-20T17:44:12.872Z,30.65
2022-11-20T17:46:39.804Z,24.13
2022-11-20T17:49:06.307Z,28.13
2022-11-20T17:51:33.605Z,23.83
2022-11-20T17:54:02.222Z,26.83
2022-11-20T17:56:32.983Z,26.92
2022-11-20T17:59:00.784Z,25.83
2022-11-20T18:01:27.137Z,26.83
2022-11-20T18:03:56.212Z,26.20
2022-11-20T18:06:25.092Z,26.48
2022-11-20T18:08:52.079Z,28.30
2022-11-20T18:11:18.319Z,26.20
2022-11-20T18:13:47.963Z,25.05
2022-11-20T18:16:14.395Z,28.48
2022-11-20T18:18:40.703Z,26.30
2022-11-20T18:21:07.017Z,28.23
2022-11-20T18:23:33.762Z,26.98
2022-11-20T18:26:00.581Z,28.23
2022-11-20T18:28:26.880Z,27.20
2022-11-20T18:30:53.393Z,28.35
2022-11-20T18:33:23.038Z,29.27
2022-11-20T18:35:51.829Z,26.30
2022-11-20T18:38:18.133Z,29.08
2022-11-20T18:40:44.447Z,24.95
2022-11-20T18:43:11.152Z,26.13
2022-11-20T18:45:37.494Z,29.00
2022-11-20T18:48:03.914Z,28.45
2022-11-20T18:50:30.256Z,27.05
2022-11-20T18:52:56.549Z,26.65
2022-11-20T18:55:22.873Z,29.33
2022-11-20T18:57:49.182Z,26.30
2022-11-20T19:00:15.855Z,29.55
2022-11-20T19:02:43.411Z,26.83
2022-11-20T19:05:14.456Z,25.27
2022-11-20T19:07:41.146Z,26.38
2022-11-20T19:10:08.243Z,27.73
2022-11-20T19:12:34.577Z,26.30
2022-11-20T19:15:00.909Z,28.13
2022-11-20T19:17:27.238Z,27.70
2022-11-20T19:19:53.590Z,31.17
2022-11-20T19:22:20.008Z,30.05
2022-11-20T19:24:46.337Z,27.45
2022-11-20T19:27:12.659Z,29.77
2022-11-20T19:29:39.030Z,29.95
2022-11-20T19:32:05.510Z,29.83
2022-11-20T19:34:31.877Z,28.98
2022-11-20T19:36:58.370Z,32.45
2022-11-20T19:39:24.923Z,28.77
2022-11-20T19:41:51.436Z,32.00
2022-11-20T19:44:17.802Z,35.40
2022-11-20T19:46:44.366Z,32.95
2022-11-20T19:49:13.179Z,37.58
2022-11-20T19:51:44.596Z,34.33
2022-11-20T19:54:10.945Z,33.22
2022-11-20T19:56:37.276Z,37.42
2022-11-20T19:59:03.603Z,34.35
2022-11-20T20:01:31.660Z,36.40
2022-11-20T20:03:59.516Z,38.75
2022-11-20T20:06:26.370Z,39.25
2022-11-20T20:09:02.490Z,38.40
2022-11-20T20:11:31.184Z,38.70
2022-11-20T20:13:57.531Z,38.17
2022-11-20T20:16:25.660Z,40.20
2022-11-20T20:19:00.015Z,40.70
2022-11-20T20:21:26.366Z,42.03
2022-11-20T20:23:54.362Z,46.50
2022-11-20T20:26:22.658Z,36.67
2022-11-20T20:28:49.179Z,42.10
2022-11-20T20:31:18.902Z,44.38
2022-11-20T20:33:45.710Z,39.83
2022-11-20T20:36:13.989Z,40.55
2022-11-20T20:38:40.603Z,39.63
2022-11-20T20:41:06.933Z,40.28
2022-11-20T20:43:33.379Z,42.75
2022-11-20T20:45:59.716Z,38.63
2022-11-20T20:48:26.049Z,52.85
2022-11-20T20:50:57.719Z,43.25
2022-11-20T20:53:25.029Z,41.83
2022-11-20T20:55:58.787Z,42.22
2022-11-20T20:58:25.755Z,54.50
2022-11-20T21:00:52.296Z,46.00
2022-11-20T21:03:19.766Z,42.13
2022-11-20T21:05:46.813Z,46.33
2022-11-20T21:08:13.252Z,46.50
2022-11-20T21:10:39.595Z,46.60
2022-11-20T21:13:05.938Z,40.55
2022-11-20T21:15:32.237Z,45.72
2022-11-20T21:17:58.545Z,49.35
2022-11-20T21:20:24.867Z,56.90
2022-11-20T21:22:51.184Z,46.80
2022-11-20T21:25:17.540Z,45.25
2022-11-20T21:27:43.869Z,43.03
2022-11-20T21:30:10.737Z,46.15
2022-11-20T21:32:37.073Z,45.50
2022-11-20T21:35:03.456Z,52.90
2022-11-20T21:37:29.764Z,49.58
2022-11-20T21:39:56.105Z,45.22
2022-11-20T21:42:22.425Z,46.92
2022-11-20T21:44:48.799Z,46.72
2022-11-20T21:47:15.195Z,45.97
2022-11-20T21:49:41.523Z,48.60
2022-11-20T21:52:07.868Z,47.40
2022-11-20T21:54:34.160Z,45.30
2022-11-20T21:57:00.467Z,49.47
2022-11-20T21:59:26.812Z,46.42
2022-11-20T22:01:53.182Z,42.63
2022-11-20T22:04:19.631Z,50.63
2022-11-20T22:06:45.976Z,44.13
2022-11-20T22:09:13.347Z,46.08
2022-11-20T22:11:39.663Z,48.58
2022-11-20T22:14:06.076Z,52.33
2022-11-20T22:16:36.795Z,51.92
2022-11-20T22:19:04.780Z,52.35
2022-11-20T22:21:32.093Z,49.50
2022-11-20T22:23:58.815Z,55.42
2022-11-20T22:26:40.251Z,59.42
2022-11-20T22:29:07.545Z,55.92
2022-11-20T22:31:34.063Z,61.00
2022-11-20T22:34:02.016Z,60.60
2022-11-20T22:36:30.357Z,60.42
2022-11-20T22:38:57.514Z,58.25
2022-11-20T22:41:28.405Z,65.07
2022-11-20T22:43:56.467Z,51.83
2022-11-20T22:46:23.937Z,55.03
2022-11-20T22:48:53.476Z,51.78
2022-11-20T22:51:22.874Z,51.30
2022-11-20T22:53:49.545Z,54.92
2022-11-20T22:56:16.680Z,54.22
2022-11-20T22:58:45.134Z,59.90
2022-11-20T23:01:15.322Z,54.13
2022-11-20T23:03:44.576Z,48.13
2022-11-20T23:06:12.062Z,51.63
2022-11-20T23:08:39.654Z,50.13
2022-11-20T23:11:16.884Z,48.58
2022-11-20T23:13:44.551Z,46.38
2022-11-20T23:16:13.869Z,43.60
2022-11-20T23:18:41.370Z,43.03
2022-11-20T23:21:16.202Z,43.95
2022-11-20T23:26:13.735Z,45.85
2022-11-20T23:28:40.885Z,46.25
2022-11-20T23:31:08.753Z,46.88
2022-11-20T23:33:36.035Z,50.53
2022-11-20T23:36:02.775Z,49.78
2022-11-20T23:38:29.145Z,53.13
2022-11-20T23:40:55.446Z,47.50
2022-11-20T23:43:22.484Z,49.50
2022-11-20T23:45:53.741Z,48.45
2022-11-20T23:48:21.622Z,46.33
2022-11-20T23:50:48.807Z,47.20
2022-11-20T23:53:15.986Z,42.88
2022-11-20T23:55:50.744Z,43.70
